Time;durP1;ratioP1;P1;durP2;ratioP2;P2;SDS_P1;SDS_P2;PMS_P1;PMS_P2;Temp;Humidity;BMP_temperature;BMP_pressure;BME280_temperature;BME280_humidity;BME280_pressure;Samples;Min_cycle;Max_cycle;Signal;HPM_P1;HPM_P2
2022/12/02 00:02:21;;;;;;;5.57;1.00;;;;;;;-0.73;99.17;101868.09;10296155;28;20038;-74
2022/12/02 00:07:23;;;;;;;4.75;1.10;;;;;;;-0.89;98.87;101835.69;10296164;28;20638;-72
2022/12/02 00:12:26;;;;;;;2.88;1.13;;;;;;;-0.64;98.55;101852.09;10295989;28;20047;-72
2022/12/02 00:17:27;;;;;;;5.10;1.00;;;;;;;-0.81;98.61;101823.16;10295409;28;20411;-72
2022/12/02 00:22:28;;;;;;;5.35;0.77;;;;;;;-0.79;98.03;101816.16;10296323;28;20046;-73
2022/12/02 00:27:29;;;;;;;2.55;0.90;;;;;;;-0.57;97.73;101848.34;10294199;28;20042;-73
2022/12/02 00:32:29;;;;;;;4.10;0.90;;;;;;;-0.52;97.63;101850.75;10294618;28;20074;-73
2022/12/02 00:37:30;;;;;;;4.72;0.77;;;;;;;-0.55;97.70;101833.44;10308474;28;20458;-72
2022/12/02 00:42:31;;;;;;;7.90;1.00;;;;;;;-0.53;97.85;101836.03;10334884;28;20093;-73
2022/12/02 00:47:32;;;;;;;4.55;1.08;;;;;;;-1.02;97.43;101741.38;10335479;28;20062;-73
2022/12/02 00:52:32;;;;;;;2.65;0.80;;;;;;;-1.03;97.74;101735.31;10333733;28;20043;-73
2022/12/02 00:57:33;;;;;;;3.25;0.55;;;;;;;-0.52;98.23;101814.22;10311525;28;20427;-72
2022/12/02 01:02:34;;;;;;;3.33;0.80;;;;;;;-0.98;97.78;101728.16;10297304;28;20046;-72
2022/12/02 01:07:35;;;;;;;5.70;1.17;;;;;;;-0.62;97.65;101808.50;10325557;28;20038;-73
2022/12/02 01:12:36;;;;;;;9.02;1.30;;;;;;;-0.47;98.10;101834.00;10333107;28;20046;-72
2022/12/02 01:17:36;;;;;;;3.97;0.90;;;;;;;-0.43;97.78;101823.44;10334095;28;20039;-72
2022/12/02 01:22:37;;;;;;;5.35;1.15;;;;;;;-0.67;98.34;101784.34;10332798;28;20042;-72
2022/12/02 01:27:38;;;;;;;2.85;0.93;;;;;;;-0.91;97.83;101741.81;10332876;28;20503;-72
2022/12/02 01:32:39;;;;;;;3.08;0.60;;;;;;;-0.46;98.12;101813.97;10332462;28;20038;-73
2022/12/02 01:37:39;;;;;;;4.25;0.77;;;;;;;-0.61;97.90;101788.47;10308154;28;20130;-73
2022/12/02 01:42:59;;;;;;;6.95;0.85;;;;;;;-0.21;97.57;101844.31;10331805;28;20097;-72
2022/12/02 01:48:19;;;;;;;7.30;1.13;;;;;;;-0.46;98.12;101803.53;10332053;28;20053;-73
2022/12/02 01:53:38;;;;;;;3.33;0.90;;;;;;;-0.87;98.03;101732.09;10332318;28;20046;-73
2022/12/02 01:58:58;;;;;;;2.40;0.70;;;;;;;-0.38;98.13;101811.06;10332206;28;20042;-73
2022/12/02 02:04:17;;;;;;;4.90;1.00;;;;;;;-0.28;98.15;101820.22;10331628;28;20074;-73
2022/12/02 02:09:36;;;;;;;4.15;0.98;;;;;;;-0.89;98.02;101721.75;10332412;28;20454;-72
2022/12/02 02:14:37;;;;;;;4.65;0.77;;;;;;;-0.47;97.79;101779.19;10308000;28;20046;-73
2022/12/02 02:19:38;;;;;;;7.10;1.23;;;;;;;-0.15;98.13;101818.81;10291567;28;20051;-72
2022/12/02 02:24:39;;;;;;;5.82;0.93;;;;;;;-0.22;98.27;101816.50;10291448;28;20046;-72
2022/12/02 02:29:40;;;;;;;3.00;0.88;;;;;;;-0.15;98.41;101817.94;10291650;28;20097;-73
2022/12/02 02:34:41;;;;;;;11.77;1.35;;;;;;;-0.15;98.29;101824.03;10290504;28;20525;-73
2022/12/02 02:39:42;;;;;;;8.10;1.15;;;;;;;-0.20;98.34;101825.97;10291010;28;20045;-73
2022/12/02 02:44:43;;;;;;;3.72;1.17;;;;;;;-0.68;98.58;101748.72;10291027;28;20042;-73
2022/12/02 02:49:44;;;;;;;3.40;1.17;;;;;;;-0.29;99.03;101821.13;10302175;28;20138;-72
2022/12/02 02:54:45;;;;;;;4.00;0.93;;;;;;;-0.51;99.05;101781.97;10290947;28;20043;-73
2022/12/02 02:59:50;;;;;;;3.72;0.90;;;;;;;-0.36;99.27;101817.06;10303263;28;20043;-72
2022/12/02 03:04:51;;;;;;;7.18;1.13;;;;;;;-0.50;99.26;101794.13;10301442;28;20545;-73
2022/12/02 03:09:52;;;;;;;6.07;1.40;;;;;;;-0.37;99.54;101813.59;10297758;28;20518;-74
2022/12/02 03:14:54;;;;;;;4.22;0.77;;;;;;;-0.79;99.35;101743.94;10312174;28;20127;-73
2022/12/02 03:19:55;;;;;;;3.55;1.00;;;;;;;-0.26;99.13;101821.84;10296764;28;20051;-72
2022/12/02 03:24:58;;;;;;;2.77;1.17;;;;;;;-0.37;98.76;101790.09;10296103;28;20039;-72
2022/12/02 03:29:59;;;;;;;6.60;1.20;;;;;;;-0.40;98.85;101781.56;10278017;28;20462;-78
2022/12/02 03:35:01;;;;;;;5.70;1.23;;;;;;;-0.19;98.63;101819.84;10316017;28;20053;-72
2022/12/02 03:40:02;;;;;;;4.53;1.00;;;;;;;-0.30;98.54;101814.19;10327049;28;20082;-74
2022/12/02 03:45:04;;;;;;;7.43;0.90;;;;;;;-0.31;98.39;101818.56;10335960;28;20050;-72
2022/12/02 03:50:06;;;;;;;3.85;1.00;;;;;;;-0.69;98.81;101775.72;10335608;28;20104;-71
2022/12/02 03:55:07;;;;;;;7.72;1.40;;;;;;;-0.52;98.70;101809.84;10336244;28;20042;-73
2022/12/02 04:00:10;;;;;;;5.10;1.08;;;;;;;-0.32;99.10;101842.16;10336688;28;20046;-72
2022/12/02 04:05:11;;;;;;;6.70;0.98;;;;;;;-0.75;98.54;101749.88;10334547;28;20136;-70
2022/12/02 04:10:12;;;;;;;4.18;0.90;;;;;;;-0.48;98.76;101792.28;10335047;28;20132;-71
2022/12/02 04:15:13;;;;;;;3.72;1.00;;;;;;;-0.26;98.92;101823.63;10334362;28;20038;-73
2022/12/02 04:20:13;;;;;;;7.35;1.13;;;;;;;-0.31;98.63;101805.53;10334581;28;20044;-73
2022/12/02 04:25:14;;;;;;;6.50;1.42;;;;;;;-0.49;98.42;101788.00;10335011;28;20050;-70
2022/12/02 04:30:15;;;;;;;4.38;1.20;;;;;;;-0.28;98.52;101817.59;10334689;28;20038;-71
2022/12/02 04:35:16;;;;;;;3.40;0.90;;;;;;;-0.24;99.05;101837.44;10294852;28;20058;-72
2022/12/02 04:40:17;;;;;;;4.20;1.27;;;;;;;-0.34;99.01;101812.63;10293089;28;20039;-72
2022/12/02 04:45:18;;;;;;;10.10;1.38;;;;;;;-0.21;98.66;101829.50;10300238;28;20137;-72
2022/12/02 04:50:19;;;;;;;4.25;1.02;;;;;;;-0.11;98.70;101833.44;10334253;28;20141;-72
2022/12/02 04:55:19;;;;;;;4.63;1.02;;;;;;;-0.53;98.88;101737.66;10312864;28;20046;-72
2022/12/02 05:00:21;;;;;;;4.32;1.00;;;;;;;0.04;97.69;101813.66;10334331;28;20030;-72
2022/12/02 05:05:22;;;;;;;3.28;0.70;;;;;;;0.00;98.31;101819.94;10334081;28;20085;-70
2022/12/02 05:10:23;;;;;;;4.22;0.90;;;;;;;-0.37;97.74;101752.69;10333852;28;20045;-71
2022/12/02 05:15:23;;;;;;;5.35;1.25;;;;;;;0.08;97.69;101828.28;10333515;28;20400;-71
2022/12/02 05:20:24;;;;;;;2.40;0.88;;;;;;;0.26;97.58;101831.91;10332439;28;20038;-71
2022/12/02 05:25:25;;;;;;;6.35;0.90;;;;;;;0.19;97.21;101827.84;10333647;28;20046;-71
2022/12/02 05:30:26;;;;;;;6.68;1.25;;;;;;;0.18;98.21;101844.44;10333056;28;20038;-70
2022/12/02 05:35:26;;;;;;;3.80;1.08;;;;;;;-0.08;98.27;101788.91;10332820;28;20485;-72
2022/12/02 05:40:29;;;;;;;3.55;0.93;;;;;;;0.13;97.55;101797.59;10332200;28;20104;-71
2022/12/02 05:45:29;;;;;;;4.90;0.85;;;;;;;0.42;97.79;101825.13;10332744;28;20065;-71
2022/12/02 05:50:32;;;;;;;6.40;1.10;;;;;;;-0.43;97.24;101661.59;10332617;28;20100;-71
2022/12/02 05:55:35;;;;;;;5.47;0.80;;;;;;;0.52;97.37;101830.78;10332449;28;20065;-71
2022/12/02 06:00:36;;;;;;;6.38;0.88;;;;;;;0.16;97.17;101767.88;10332081;28;20042;-71
2022/12/02 06:05:40;;;;;;;3.70;0.90;;;;;;;0.67;96.82;101824.03;10331613;28;20089;-72
2022/12/02 06:10:45;;;;;;;6.32;0.90;;;;;;;0.89;95.93;101840.44;10331791;28;20093;-71
2022/12/02 06:15:48;;;;;;;4.10;1.02;;;;;;;0.93;96.22;101840.31;10331815;28;20566;-72
2022/12/02 06:20:56;;;;;;;3.58;0.90;;;;;;;0.90;96.34;101825.63;10330553;28;20076;-72
2022/12/02 06:25:58;;;;;;;5.15;0.88;;;;;;;0.55;95.58;101756.59;10331664;28;20041;-72
2022/12/02 06:31:21;;;;;;;6.35;1.00;;;;;;;1.03;95.44;101850.31;10323660;28;20042;-74
2022/12/02 06:36:40;;;;;;;4.93;0.90;;;;;;;1.08;95.40;101840.50;10258891;29;20503;-72
2022/12/02 06:42:08;;;;;;;3.50;0.90;;;;;;;0.68;95.14;101769.03;10256603;29;20051;-73
2022/12/02 06:47:36;;;;;;;3.92;0.80;;;;;;;0.38;95.07;101689.38;10259134;28;20047;-73
2022/12/02 06:52:41;;;;;;;7.07;1.10;;;;;;;0.99;94.55;101756.31;10259413;28;20043;-72
2022/12/02 06:57:42;;;;;;;3.78;1.15;;;;;;;1.49;93.95;101824.59;10258729;28;20130;-72
2022/12/02 07:02:43;;;;;;;4.10;0.85;;;;;;;1.48;93.49;101803.72;10258590;29;20051;-71
2022/12/02 07:07:43;;;;;;;2.97;0.73;;;;;;;1.33;93.05;101742.47;10259597;29;20047;-72
2022/12/02 07:12:45;;;;;;;4.65;0.98;;;;;;;2.08;92.99;101827.84;10258440;28;20098;-72
2022/12/02 07:17:46;;;;;;;4.13;1.17;;;;;;;2.03;91.32;101799.25;10256786;29;20567;-72
2022/12/02 07:22:53;;;;;;;3.53;1.00;;;;;;;2.32;91.45;101804.78;10258047;29;20134;-73
2022/12/02 07:27:54;;;;;;;3.67;1.00;;;;;;;2.48;90.94;101821.44;10258276;28;20043;-72
2022/12/02 07:32:55;;;;;;;5.80;1.05;;;;;;;2.49;90.45;101810.00;10257241;29;20039;-73
2022/12/02 07:37:57;;;;;;;4.28;0.80;;;;;;;2.65;89.92;101812.66;10257944;28;20043;-72
2022/12/02 07:42:57;;;;;;;5.22;0.90;;;;;;;2.64;89.85;101787.38;10255546;28;20130;-72
2022/12/02 07:47:58;;;;;;;6.97;1.15;;;;;;;2.92;89.18;101809.50;10256166;28;20146;-72
2022/12/02 07:53:17;;;;;;;2.50;0.60;;;;;;;2.97;87.66;101778.59;10256280;29;20055;-72
2022/12/02 07:58:37;;;;;;;1.88;0.70;;;;;;;3.08;87.74;101797.25;10256060;29;20129;-73
2022/12/02 08:03:56;;;;;;;7.07;1.00;;;;;;;2.86;87.53;101725.84;10256016;29;20039;-73
2022/12/02 08:09:15;;;;;;;4.43;0.70;;;;;;;3.18;87.67;101759.03;10256193;29;20500;-73
2022/12/02 08:14:35;;;;;;;4.03;0.60;;;;;;;3.04;87.23;101711.69;10256025;29;20043;-72
2022/12/02 08:19:54;;;;;;;1.70;0.45;;;;;;;3.43;86.48;101763.75;10255859;29;20044;-73
2022/12/02 08:25:14;;;;;;;5.68;0.75;;;;;;;3.51;85.70;101773.84;10254986;29;20055;-73
2022/12/02 08:30:33;;;;;;;4.13;0.60;;;;;;;2.97;85.70;101663.09;10255393;29;20145;-73
2022/12/02 08:35:52;;;;;;;10.07;2.50;;;;;;;3.46;85.87;101725.94;10255420;29;20043;-72
2022/12/02 08:41:12;;;;;;;6.30;1.10;;;;;;;3.72;86.03;101750.72;10255312;29;20043;-72
2022/12/02 08:46:31;;;;;;;4.15;1.05;;;;;;;3.82;85.23;101748.41;10254532;29;20043;-72
2022/12/02 08:51:51;;;;;;;6.10;0.80;;;;;;;3.92;84.62;101730.28;10253141;28;20055;-72
2022/12/02 08:56:52;;;;;;;6.10;1.35;;;;;;;3.94;84.31;101728.44;10253757;28;20126;-72
2022/12/02 09:01:53;;;;;;;6.75;1.17;;;;;;;4.09;84.56;101738.88;10254061;29;20137;-72
2022/12/02 09:06:54;;;;;;;5.88;0.75;;;;;;;4.14;84.53;101727.25;10253981;28;20408;-72
2022/12/02 09:11:54;;;;;;;5.43;1.40;;;;;;;3.75;84.33;101642.78;10254665;28;20049;-74
2022/12/02 09:16:55;;;;;;;4.28;0.77;;;;;;;4.12;84.24;101708.91;10253438;28;20047;-72
2022/12/02 09:21:56;;;;;;;10.32;3.88;;;;;;;4.25;83.36;101719.56;10253852;28;20042;-72
2022/12/02 09:26:57;;;;;;;24.10;7.85;;;;;;;4.22;83.25;101698.69;10253377;28;20089;-73
2022/12/02 09:31:57;;;;;;;5.53;1.35;;;;;;;4.48;82.83;101710.25;10253622;28;20047;-72
2022/12/02 09:36:58;;;;;;;13.23;3.38;;;;;;;4.40;83.37;101705.47;10253143;28;20047;-73
2022/12/02 09:42:00;;;;;;;6.00;1.58;;;;;;;3.86;81.89;101634.28;10253036;29;20515;-73
2022/12/02 09:47:01;;;;;;;7.15;1.98;;;;;;;4.26;82.20;101685.25;10253129;29;20043;-72
2022/12/02 09:52:04;;;;;;;2.78;0.85;;;;;;;4.44;80.83;101709.59;10252815;28;20051;-73
2022/12/02 09:57:16;;;;;;;4.23;0.93;;;;;;;4.04;81.80;101627.88;10252532;28;20039;-72
2022/12/02 10:02:39;;;;;;;5.88;0.90;;;;;;;4.08;81.42;101642.53;10251703;29;20448;-72
2022/12/02 10:07:40;;;;;;;4.60;0.73;;;;;;;4.18;81.56;101692.75;10251258;28;20126;-73
2022/12/02 10:12:41;;;;;;;7.82;1.25;;;;;;;3.85;82.07;101624.66;10252119;28;20080;-71
2022/12/02 10:17:44;;;;;;;2.15;0.47;;;;;;;4.08;82.72;101660.94;10250385;29;20039;-72
2022/12/02 10:23:03;;;;;;;9.60;1.63;;;;;;;4.28;81.79;101703.59;10251160;28;20049;-72
2022/12/02 10:28:16;;;;;;;5.38;0.93;;;;;;;4.03;82.64;101680.56;10250941;28;20058;-72
2022/12/02 10:33:17;;;;;;;7.18;0.70;;;;;;;3.96;82.19;101676.63;10252022;28;20536;-71
2022/12/02 10:38:37;;;;;;;6.40;1.02;;;;;;;4.01;81.99;101706.09;10251147;28;20039;-74
2022/12/02 10:43:43;;;;;;;10.52;0.90;;;;;;;3.89;83.06;101694.56;10251512;28;20040;-72
2022/12/02 10:48:47;;;;;;;4.43;1.30;;;;;;;3.81;82.80;101676.59;10250052;29;20062;-72
2022/12/02 10:53:55;;;;;;;8.07;1.13;;;;;;;3.75;82.66;101662.97;10250204;29;20047;-71
2022/12/02 10:58:58;;;;;;;3.58;1.27;;;;;;;3.41;82.90;101607.16;10251030;28;20043;-72
2022/12/02 11:03:59;;;;;;;6.82;1.13;;;;;;;3.64;82.77;101650.47;10250348;28;20085;-72
2022/12/02 11:09:00;;;;;;;3.47;0.80;;;;;;;3.73;82.81;101691.13;10250155;29;20070;-73
2022/12/02 11:14:04;;;;;;;6.32;0.98;;;;;;;3.70;82.42;101673.75;10250707;29;20071;-72
2022/12/02 11:19:32;;;;;;;5.80;1.33;;;;;;;3.75;82.65;101689.25;10255938;28;20051;-73
2022/12/02 11:24:34;;;;;;;4.57;1.10;;;;;;;3.27;82.70;101605.34;10257363;28;20071;-73
2022/12/02 11:30:05;;;;;;;6.53;1.02;;;;;;;3.54;82.73;101667.72;10257369;29;20051;-72
2022/12/02 11:35:16;;;;;;;4.43;1.25;;;;;;;3.26;83.07;101619.44;10230261;28;20074;-71
2022/12/02 11:40:16;;;;;;;5.93;0.75;;;;;;;3.64;82.98;101682.00;10257710;28;20039;-72
2022/12/02 11:45:18;;;;;;;4.18;0.90;;;;;;;3.72;83.38;101656.13;10255834;29;20130;-71
2022/12/02 11:50:31;;;;;;;9.65;1.65;;;;;;;3.70;83.75;101681.63;10255350;29;20415;-71
2022/12/02 11:55:38;;;;;;;6.68;1.58;;;;;;;3.72;83.53;101690.28;10257250;28;20075;-71
2022/12/02 12:00:44;;;;;;;25.40;2.13;;;;;;;3.63;83.84;101681.16;10256890;28;20038;-71
2022/12/02 12:06:09;;;;;;;7.25;1.48;;;;;;;3.68;84.20;101673.00;10256447;28;20039;-73
2022/12/02 12:11:28;;;;;;;9.23;1.33;;;;;;;3.39;83.71;101630.91;10270210;28;20046;-73
2022/12/02 12:16:49;;;;;;;12.65;1.02;;;;;;;3.12;83.12;101586.09;10322198;28;20129;-73
2022/12/02 12:22:27;;;;;;;7.43;1.70;;;;;;;3.74;83.24;101698.94;10319783;28;20046;-73
2022/12/02 12:27:46;;;;;;;11.63;1.00;;;;;;;3.15;83.27;101578.03;10335001;28;20053;-73
2022/12/02 12:33:05;;;;;;;7.13;0.82;;;;;;;2.95;83.33;101539.81;10335439;28;20042;-72
2022/12/02 12:38:28;;;;;;;4.55;1.00;;;;;;;3.57;83.30;101665.75;10334204;28;20046;-71
2022/12/02 12:43:49;;;;;;;7.80;0.93;;;;;;;3.07;83.37;101588.13;10334241;28;20042;-75
2022/12/02 12:49:08;;;;;;;8.07;1.08;;;;;;;3.49;83.57;101667.13;10334200;28;20054;-72
2022/12/02 12:54:28;;;;;;;17.83;1.83;;;;;;;3.64;84.20;101693.34;10309217;28;20051;-73
2022/12/02 12:59:47;;;;;;;7.43;1.00;;;;;;;3.67;84.33;101714.19;10330855;28;20042;-72
2022/12/02 13:05:07;;;;;;;6.78;0.90;;;;;;;3.52;84.60;101688.81;10253640;29;20051;-72
2022/12/02 13:10:26;;;;;;;6.60;0.85;;;;;;;3.62;84.52;101712.75;10310454;28;20054;-72
2022/12/02 13:15:46;;;;;;;13.90;1.10;;;;;;;3.42;84.84;101698.19;10316279;28;20034;-70
2022/12/02 13:21:06;;;;;;;12.77;1.23;;;;;;;3.48;84.85;101715.38;10252515;29;20133;-71
2022/12/02 13:26:25;;;;;;;5.95;0.85;;;;;;;3.40;85.16;101715.78;10253459;29;20133;-69
2022/12/02 13:31:45;;;;;;;8.95;0.80;;;;;;;3.02;85.57;101661.06;10264585;28;20070;-71
2022/12/02 13:37:04;;;;;;;7.97;1.35;;;;;;;2.94;84.99;101650.16;10300172;28;20110;-69
2022/12/02 13:42:24;;;;;;;6.53;1.23;;;;;;;3.26;84.96;101713.97;10290872;28;20043;-71
2022/12/02 13:47:43;;;;;;;9.40;1.10;;;;;;;3.24;85.28;101722.88;10292399;28;20050;-69
2022/12/02 13:53:03;;;;;;;5.65;1.30;;;;;;;2.69;84.81;101648.03;10292435;28;20082;-69
2022/12/02 13:58:03;;;;;;;6.35;0.88;;;;;;;3.11;84.83;101720.94;10292258;28;20074;-70
2022/12/02 14:03:04;;;;;;;4.93;0.90;;;;;;;3.15;84.51;101725.06;10291924;28;20554;-69
2022/12/02 14:08:05;;;;;;;3.50;0.50;;;;;;;2.90;84.90;101722.09;10291402;28;20049;-72
2022/12/02 14:13:06;;;;;;;4.93;0.60;;;;;;;2.97;85.14;101724.31;10291674;28;20042;-70
2022/12/02 14:18:06;;;;;;;3.50;0.50;;;;;;;2.77;85.04;101689.63;10291832;28;20514;-70
2022/12/02 14:23:10;;;;;;;3.38;0.68;;;;;;;2.94;84.68;101739.41;10291425;28;20043;-70
2022/12/02 14:28:11;;;;;;;3.00;0.70;;;;;;;2.79;84.84;101738.47;10290988;28;20393;-74
2022/12/02 14:33:12;;;;;;;6.07;0.82;;;;;;;2.53;84.93;101708.38;10273577;28;20039;-72
2022/12/02 14:38:31;;;;;;;2.95;0.52;;;;;;;2.53;84.22;101744.25;10266696;28;20610;-73
2022/12/02 14:43:51;;;;;;;3.58;0.52;;;;;;;2.51;84.17;101753.06;10296329;28;20051;-74
2022/12/02 14:49:12;;;;;;;2.13;0.52;;;;;;;2.39;83.79;101755.47;10281697;28;20579;-72
2022/12/02 14:54:13;;;;;;;4.85;0.50;;;;;;;2.25;84.26;101753.59;10276458;28;20051;-71
2022/12/02 14:59:14;;;;;;;3.15;0.60;;;;;;;1.26;84.47;101595.34;10301086;28;20538;-74
2022/12/02 15:04:14;;;;;;;6.70;0.90;;;;;;;2.13;84.04;101757.69;10297166;28;20054;-70
2022/12/02 15:09:15;;;;;;;5.40;0.60;;;;;;;2.02;83.36;101750.38;10297864;28;20045;-72
2022/12/02 15:14:16;;;;;;;5.18;0.80;;;;;;;1.41;83.61;101671.38;10298385;28;20039;-72
2022/12/02 15:19:36;;;;;;;4.18;0.68;;;;;;;1.35;83.99;101680.44;10297381;28;20462;-72
2022/12/02 15:24:36;;;;;;;4.22;0.60;;;;;;;1.31;84.10;101695.41;10296066;28;20074;-74
2022/12/02 15:29:37;;;;;;;5.10;0.70;;;;;;;1.48;84.29;101733.03;10295369;28;20046;-74
2022/12/02 15:34:38;;;;;;;4.45;0.68;;;;;;;1.67;83.91;101791.44;10288262;28;20049;-74
2022/12/02 15:39:39;;;;;;;7.35;0.50;;;;;;;1.55;83.09;101789.41;10293078;28;20035;-73
2022/12/02 15:44:39;;;;;;;2.20;0.38;;;;;;;1.22;83.50;101761.31;10296084;28;20038;-74
2022/12/02 15:49:40;;;;;;;3.10;0.50;;;;;;;0.88;83.04;101734.13;10293946;28;20084;-72
2022/12/02 15:54:41;;;;;;;3.88;0.47;;;;;;;0.75;83.23;101727.78;10288042;28;20055;-72
2022/12/02 15:59:42;;;;;;;3.38;0.70;;;;;;;1.14;82.77;101807.97;10287247;28;20038;-75
2022/12/02 16:04:43;;;;;;;5.40;0.57;;;;;;;1.15;83.15;101814.88;10288079;28;20588;-72
2022/12/02 16:09:44;;;;;;;1.77;0.50;;;;;;;1.09;82.91;101809.94;10291142;28;20049;-75
2022/12/02 16:14:44;;;;;;;2.63;0.50;;;;;;;1.03;82.64;101805.81;10287268;28;20487;-73
2022/12/02 16:19:45;;;;;;;1.15;0.30;;;;;;;0.80;83.08;101792.94;10287518;28;20041;-73
2022/12/02 16:24:46;;;;;;;9.32;0.85;;;;;;;0.93;83.34;101814.16;10285552;28;20047;-72
2022/12/02 16:29:47;;;;;;;6.00;0.63;;;;;;;0.68;83.36;101789.09;10290521;28;20039;-73
2022/12/02 16:34:48;;;;;;;5.18;0.52;;;;;;;0.65;83.11;101804.94;10290856;28;20038;-72
2022/12/02 16:39:49;;;;;;;2.67;0.50;;;;;;;0.42;84.09;101775.44;10290337;28;20129;-72
2022/12/02 16:44:50;;;;;;;2.65;0.55;;;;;;;0.42;83.87;101788.50;10293701;28;20053;-73
2022/12/02 16:49:51;;;;;;;3.83;0.98;;;;;;;0.51;83.44;101823.00;10294635;28;20058;-72
2022/12/02 16:54:52;;;;;;;4.40;0.75;;;;;;;0.09;83.17;101769.91;10294633;28;20074;-73
2022/12/02 16:59:52;;;;;;;1.85;0.45;;;;;;;-0.05;83.19;101743.53;10294841;28;20487;-72
2022/12/02 17:04:53;;;;;;;2.17;0.47;;;;;;;0.21;83.47;101800.75;10293879;28;20078;-72
2022/12/02 17:09:54;;;;;;;3.75;0.40;;;;;;;0.10;83.53;101807.34;10293426;28;20072;-72
2022/12/02 17:14:54;;;;;;;7.55;0.80;;;;;;;0.34;83.01;101837.66;10294072;28;20039;-73
2022/12/02 17:19:55;;;;;;;4.40;0.60;;;;;;;0.20;82.90;101819.09;10294209;28;20046;-73
2022/12/02 17:24:56;;;;;;;1.42;0.50;;;;;;;0.10;83.65;101807.34;10293330;28;20042;-72
2022/12/02 17:29:57;;;;;;;3.25;0.47;;;;;;;-0.04;84.14;101821.81;10292694;28;20070;-73
2022/12/02 17:34:58;;;;;;;2.42;0.60;;;;;;;-0.42;84.21;101749.41;10292943;28;20050;-74
2022/12/02 17:39:59;;;;;;;5.40;0.65;;;;;;;0.03;84.04;101826.78;10293321;28;20483;-73
2022/12/02 17:44:59;;;;;;;2.60;0.50;;;;;;;-0.87;84.07;101672.09;10292801;28;20050;-72
2022/12/02 17:50:00;;;;;;;3.90;0.40;;;;;;;-0.24;83.92;101806.09;10292372;28;20153;-73
2022/12/02 17:55:01;;;;;;;3.65;0.70;;;;;;;-0.31;83.71;101775.94;10319076;28;20043;-74
2022/12/02 18:00:04;;;;;;;4.22;0.70;;;;;;;-0.10;84.15;101819.47;10292166;28;20046;-73
2022/12/02 18:05:05;;;;;;;2.92;0.60;;;;;;;-0.29;84.72;101815.91;10291923;28;20441;-74
2022/12/02 18:10:06;;;;;;;1.90;0.60;;;;;;;-0.19;85.58;101827.69;10292656;28;20050;-74
2022/12/02 18:15:11;;;;;;;3.58;0.77;;;;;;;-0.34;85.73;101821.31;10291212;28;20564;-72
2022/12/02 18:20:12;;;;;;;1.33;0.57;;;;;;;-0.49;86.00;101804.50;10291582;28;20407;-73
2022/12/02 18:25:13;;;;;;;7.15;0.80;;;;;;;-0.65;86.11;101807.78;10290488;28;20051;-74
2022/12/02 18:30:14;;;;;;;2.03;0.60;;;;;;;-0.39;86.45;101843.28;10280648;28;20499;-74
2022/12/02 18:35:16;;;;;;;3.35;0.47;;;;;;;-0.52;85.93;101828.13;10268227;28;20075;-73
2022/12/02 18:40:18;;;;;;;2.55;0.45;;;;;;;-0.62;86.14;101782.41;10280229;28;20039;-73
2022/12/02 18:45:19;;;;;;;4.00;0.63;;;;;;;-0.36;85.72;101819.66;10325434;28;20053;-73
2022/12/02 18:50:19;;;;;;;3.65;0.50;;;;;;;-0.45;nan;101818.28;10331240;28;20058;-73
2022/12/02 18:55:21;;;;;;;2.65;0.77;;;;;;;-0.88;85.77;101769.53;10329161;28;20038;-75
2022/12/02 19:00:21;;;;;;;5.72;0.60;;;;;;;-0.63;85.84;101819.84;10326743;28;20092;-74
2022/12/02 19:05:22;;;;;;;2.60;0.57;;;;;;;-0.62;86.58;101833.78;10329845;28;20070;-76
2022/12/02 19:10:23;;;;;;;4.25;0.60;;;;;;;-0.59;86.72;101826.66;10331481;28;20047;-74
2022/12/02 19:15:24;;;;;;;0.77;0.22;;;;;;;-1.48;86.50;101673.59;10330779;28;20112;-72
2022/12/02 19:20:25;;;;;;;4.40;0.57;;;;;;;-0.62;86.92;101826.78;10330894;28;20104;-74
2022/12/02 19:25:27;;;;;;;2.10;0.40;;;;;;;-0.80;87.00;101794.44;10330897;28;20050;-73
2022/12/02 19:30:28;;;;;;;1.75;0.68;;;;;;;-1.62;86.54;101666.28;10330524;28;20042;-74
2022/12/02 19:35:29;;;;;;;2.35;0.40;;;;;;;-0.96;87.00;101781.13;10329958;28;20081;-75
2022/12/02 19:40:30;;;;;;;6.03;0.85;;;;;;;-0.68;87.15;101834.84;10335838;28;20542;-73
2022/12/02 19:45:31;;;;;;;3.55;0.60;;;;;;;-0.84;86.64;101813.69;10337562;28;20038;-74
2022/12/02 19:50:32;;;;;;;4.20;0.52;;;;;;;-1.79;86.83;101660.03;10336868;28;20058;-74
2022/12/02 19:55:33;;;;;;;3.60;0.65;;;;;;;-0.73;86.78;101848.06;10336563;28;20050;-73
2022/12/02 20:00:34;;;;;;;3.33;0.47;;;;;;;-0.89;87.21;101809.59;10319811;28;20038;-73
2022/12/02 20:05:35;;;;;;;1.70;0.40;;;;;;;-0.80;87.36;101810.09;10296209;28;20042;-74
2022/12/02 20:10:36;;;;;;;7.53;0.55;;;;;;;-1.10;88.51;101783.41;10295671;28;20034;-73
2022/12/02 20:15:38;;;;;;;3.30;0.60;;;;;;;-1.06;88.60;101811.06;10296512;28;20038;-73
2022/12/02 20:20:39;;;;;;;3.17;0.52;;;;;;;-0.96;88.85;101808.94;10295345;28;20448;-75
2022/12/02 20:25:40;;;;;;;2.85;0.60;;;;;;;-1.12;89.04;101790.44;10295128;28;20042;-74
2022/12/02 20:30:40;;;;;;;3.03;0.70;;;;;;;-1.23;89.52;101788.22;10295759;28;20102;-74
2022/12/02 20:35:41;;;;;;;6.20;0.70;;;;;;;-0.89;89.37;101831.31;10293674;28;20077;-77
2022/12/02 20:40:42;;;;;;;3.55;0.63;;;;;;;-1.29;89.54;101774.56;10295709;28;20035;-74
2022/12/02 20:45:43;;;;;;;4.70;0.50;;;;;;;-1.26;89.54;101770.06;10294309;28;20134;-74
2022/12/02 20:50:44;;;;;;;4.05;0.70;;;;;;;-1.16;89.08;101789.69;10294446;28;20507;-73
2022/12/02 20:55:45;;;;;;;1.95;0.60;;;;;;;-1.58;89.05;101721.75;10294123;28;20051;-74
2022/12/02 21:00:45;;;;;;;2.10;0.52;;;;;;;-1.35;89.56;101752.16;10293681;28;20039;-73
2022/12/02 21:05:46;;;;;;;2.97;0.50;;;;;;;-1.16;89.84;101796.69;10294050;28;20607;-73
2022/12/02 21:10:47;;;;;;;4.90;0.98;;;;;;;-1.07;90.27;101804.16;10294050;28;20077;-75
2022/12/02 21:15:48;;;;;;;3.78;0.70;;;;;;;-1.30;90.63;101784.13;10293721;28;20096;-74
2022/12/02 21:20:48;;;;;;;3.03;1.10;;;;;;;-1.30;90.81;101788.50;10293463;28;20053;-74
2022/12/02 21:25:49;;;;;;;2.15;0.60;;;;;;;-1.14;90.20;101818.31;10292945;28;20042;-74
2022/12/02 21:30:50;;;;;;;2.15;0.70;;;;;;;-1.21;90.69;101807.25;10293320;28;20094;-74
2022/12/02 21:35:51;;;;;;;3.30;0.52;;;;;;;-1.26;91.12;101808.34;10292955;28;20043;-73
2022/12/02 21:40:53;;;;;;;2.20;0.75;;;;;;;-1.68;90.71;101717.78;10292310;28;20066;-74
2022/12/02 21:45:55;;;;;;;2.58;0.50;;;;;;;-1.15;91.01;101814.00;10292649;28;20159;-74
2022/12/02 21:50:55;;;;;;;4.70;0.47;;;;;;;-1.08;90.83;101805.03;10292637;28;20502;-74
2022/12/02 21:55:56;;;;;;;2.50;0.50;;;;;;;-1.11;90.33;101812.13;10293176;28;20078;-74
2022/12/02 22:06:17;;;;;;;3.17;0.93;;;;;;;-1.26;91.01;101810.94;10291602;28;20559;-73
2022/12/02 22:11:17;;;;;;;4.55;0.70;;;;;;;-1.69;90.50;101729.97;10291534;28;20039;-73
2022/12/02 22:16:18;;;;;;;5.35;0.65;;;;;;;-1.09;90.18;101821.59;10291911;28;20046;-73
2022/12/02 22:21:19;;;;;;;1.60;0.40;;;;;;;-1.18;90.50;101794.09;10291279;28;20102;-74
2022/12/02 22:26:20;;;;;;;1.58;0.70;;;;;;;-1.64;90.12;101727.19;10292678;28;20395;-73
2022/12/02 22:31:21;;;;;;;3.60;0.95;;;;;;;-1.26;90.30;101808.34;10291599;28;20049;-73
2022/12/02 22:36:21;;;;;;;1.25;0.43;;;;;;;-1.70;90.96;101727.41;10290912;28;20095;-73
2022/12/02 22:41:22;;;;;;;2.25;0.50;;;;;;;-1.21;90.68;101817.69;10291235;28;20051;-74
2022/12/02 22:46:23;;;;;;;3.95;0.98;;;;;;;-1.30;90.54;101793.72;10291564;28;20082;-73
2022/12/02 22:51:24;;;;;;;1.92;0.50;;;;;;;-1.97;90.81;101709.25;10290328;28;20082;-72
2022/12/02 22:56:25;;;;;;;2.58;0.70;;;;;;;-1.59;90.98;101790.41;10291231;28;20058;-72
2022/12/02 23:01:25;;;;;;;3.47;0.70;;;;;;;-1.31;90.57;101818.09;10290076;28;20070;-72
2022/12/02 23:06:26;;;;;;;2.83;0.70;;;;;;;-1.34;91.47;101832.09;10290071;28;20037;-73
2022/12/02 23:11:27;;;;;;;3.47;1.10;;;;;;;-1.87;91.41;101747.09;10289885;28;20039;-73
2022/12/02 23:16:28;;;;;;;3.85;1.02;;;;;;;-1.58;91.69;101794.72;10298930;28;20510;-73
2022/12/02 23:21:29;;;;;;;5.47;1.17;;;;;;;-1.38;91.68;101838.31;10297488;28;20038;-73
2022/12/02 23:26:30;;;;;;;2.80;1.10;;;;;;;-1.53;92.25;101837.09;10313483;28;20045;-74
2022/12/02 23:31:31;;;;;;;3.33;1.23;;;;;;;-1.73;92.63;101810.91;10304923;28;20046;-73
2022/12/02 23:36:32;;;;;;;4.60;1.52;;;;;;;-1.75;92.58;101807.50;10334945;28;20134;-73